< < Back
Terminal Aerodrome Forecast


Current Version              Previous Versions:   1  2  3  4  5  6  7  8  9  

Terminal Aerodrome Forecast

464
FTUS44 KOHX 131722
TAFCSV
TAF
KCSV 131722Z 1318/1418 36008G15KT P6SM BKN250
     FM140000 VRB03KT P6SM OVC200
     FM141500 14008KT P6SM OVC060=

Latest METAR

872
SAUS70 KWBC 131900 RRD
MTRCSV
METAR KCSV 131853Z AUTO 32007KT 10SM CLR M03/M16 A3038 RMK AO2 SLP306
T10331161


USA.gov is the U.S. government's official web portal to all federal, state and local government web resources and services.